Time;durP1;ratioP1;P1;durP2;ratioP2;P2;SDS_P1;SDS_P2;PMS_P1;PMS_P2;Temp;Humidity;BMP_temperature;BMP_pressure;BME280_temperature;BME280_humidity;BME280_pressure;Samples;Min_cycle;Max_cycle;Signal;HPM_P1;HPM_P2
2022/05/13 00:02:12;;;;;;;;;;;10.40;99.90;;;;;;5076150;28;19931;-69
2022/05/13 00:04:38;;;;;;;;;;;10.40;99.90;;;;;;5073635;28;19921;-71
2022/05/13 00:07:04;;;;;;;;;;;10.40;99.90;;;;;;5070288;28;20381;-70
2022/05/13 00:12:14;;;;;;;;;;;10.40;99.90;;;;;;5077602;28;19974;-70
2022/05/13 00:14:41;;;;;;;;;;;10.40;99.90;;;;;;5074236;28;19990;-70
2022/05/13 00:17:07;;;;;;;;;;;10.40;99.90;;;;;;5073594;28;19924;-70
2022/05/13 00:19:32;;;;;;;;;;;10.40;99.90;;;;;;5080081;28;20390;-69
2022/05/13 00:21:58;;;;;;;;;;;10.40;99.90;;;;;;5080669;28;19963;-70
2022/05/13 00:24:24;;;;;;;;;;;10.40;99.90;;;;;;5078487;28;19920;-69
2022/05/13 00:26:49;;;;;;;;;;;10.40;99.90;;;;;;5079369;28;19924;-70
2022/05/13 00:29:15;;;;;;;;;;;10.40;99.90;;;;;;5115715;27;21310;-70
2022/05/13 00:31:42;;;;;;;;;;;10.50;99.90;;;;;;5084890;28;19924;-70
2022/05/13 00:34:08;;;;;;;;;;;10.50;99.90;;;;;;5076874;28;19989;-70
2022/05/13 00:36:34;;;;;;;;;;;10.40;99.90;;;;;;5091096;28;19928;-70
2022/05/13 00:39:00;;;;;;;;;;;10.40;99.90;;;;;;5078832;28;19955;-70
2022/05/13 00:41:26;;;;;;;;;;;10.40;99.90;;;;;;5107689;27;20015;-70
2022/05/13 00:43:52;;;;;;;;;;;10.50;99.90;;;;;;5093394;28;20190;-70
2022/05/13 00:46:22;;;;;;;;;;;10.50;99.90;;;;;;5077238;28;19932;-70
2022/05/13 00:48:47;;;;;;;;;;;10.50;99.90;;;;;;5078421;28;19924;-69
2022/05/13 00:51:16;;;;;;;;;;;10.50;99.90;;;;;;5079508;28;20417;-70
2022/05/13 00:53:43;;;;;;;;;;;10.50;99.90;;;;;;5080350;28;19925;-70
2022/05/13 00:56:09;;;;;;;;;;;10.50;99.90;;;;;;5076387;28;19928;-71
2022/05/13 00:58:36;;;;;;;;;;;10.50;99.90;;;;;;5078714;28;19920;-70
2022/05/13 01:01:02;;;;;;;;;;;10.50;99.90;;;;;;5061139;28;19924;-70
2022/05/13 01:03:27;;;;;;;;;;;10.50;99.90;;;;;;5076676;28;19920;-69
2022/05/13 01:05:55;;;;;;;;;;;10.50;99.90;;;;;;5091632;28;20405;-71
2022/05/13 01:08:20;;;;;;;;;;;10.60;99.90;;;;;;5062214;28;19921;-70
2022/05/13 01:10:46;;;;;;;;;;;10.60;99.90;;;;;;5078015;28;19926;-70
2022/05/13 01:13:14;;;;;;;;;;;10.60;99.90;;;;;;5074401;28;19936;-70
2022/05/13 01:15:41;;;;;;;;;;;10.60;99.90;;;;;;5073173;28;19977;-71
2022/05/13 01:18:07;;;;;;;;;;;10.60;99.90;;;;;;5076762;28;19923;-70
2022/05/13 01:20:32;;;;;;;;;;;10.60;99.90;;;;;;5062429;28;20321;-70
2022/05/13 01:23:00;;;;;;;;;;;10.60;99.90;;;;;;5073742;28;19970;-69
2022/05/13 01:25:28;;;;;;;;;;;10.60;99.90;;;;;;5075047;28;19924;-70
2022/05/13 01:27:54;;;;;;;;;;;10.60;99.90;;;;;;5075853;28;19924;-70
2022/05/13 01:30:25;;;;;;;;;;;10.60;99.90;;;;;;5077317;28;19928;-69
2022/05/13 01:32:50;;;;;;;;;;;10.60;99.90;;;;;;5109118;27;19989;-70
2022/05/13 01:35:16;;;;;;;;;;;10.60;99.90;;;;;;5078834;28;19968;-70
2022/05/13 01:37:41;;;;;;;;;;;10.70;99.90;;;;;;5079570;28;19935;-69
2022/05/13 01:40:07;;;;;;;;;;;10.60;99.90;;;;;;5074348;28;20359;-70
2022/05/13 01:42:33;;;;;;;;;;;10.60;99.90;;;;;;5073687;28;19943;-71
2022/05/13 01:44:59;;;;;;;;;;;10.60;99.90;;;;;;5073676;28;20014;-70
2022/05/13 01:47:25;;;;;;;;;;;10.60;99.90;;;;;;5071969;28;19970;-70
2022/05/13 01:49:51;;;;;;;;;;;10.60;99.90;;;;;;5106181;27;20211;-70
2022/05/13 01:52:16;;;;;;;;;;;10.60;99.90;;;;;;5075591;28;21379;-70
2022/05/13 01:54:42;;;;;;;;;;;10.60;99.90;;;;;;5081254;28;19920;-70
2022/05/13 01:57:07;;;;;;;;;;;10.60;99.90;;;;;;5075338;28;19924;-70
2022/05/13 01:59:33;;;;;;;;;;;10.50;99.90;;;;;;5078811;28;20291;-70
2022/05/13 02:01:58;;;;;;;;;;;10.50;99.90;;;;;;5088208;28;19932;-70
2022/05/13 02:04:24;;;;;;;;;;;10.50;99.90;;;;;;5075590;28;20540;-70
2022/05/13 02:06:49;;;;;;;;;;;10.50;99.90;;;;;;5075322;28;19924;-69
2022/05/13 02:09:15;;;;;;;;;;;10.50;99.90;;;;;;5091969;28;19920;-69
2022/05/13 02:11:40;;;;;;;;;;;10.50;99.90;;;;;;5078859;28;19977;-69
2022/05/13 02:14:06;;;;;;;;;;;10.40;99.90;;;;;;5076287;28;20287;-69
2022/05/13 02:16:32;;;;;;;;;;;10.50;99.90;;;;;;5077671;28;20372;-70
2022/05/13 02:18:58;;;;;;;;;;;10.50;99.90;;;;;;5106679;27;19931;-69
2022/05/13 02:21:24;;;;;;;;;;;10.50;99.90;;;;;;5081515;28;19921;-69
2022/05/13 02:23:50;;;;;;;;;;;10.50;99.90;;;;;;5078192;28;19920;-69
2022/05/13 02:26:17;;;;;;;;;;;10.40;99.90;;;;;;5062307;28;20435;-69
2022/05/13 02:28:43;;;;;;;;;;;10.40;99.90;;;;;;5079109;28;19924;-70
2022/05/13 02:31:09;;;;;;;;;;;10.40;99.90;;;;;;5077164;28;19968;-69
2022/05/13 02:33:35;;;;;;;;;;;10.50;99.90;;;;;;5106701;27;19926;-69
2022/05/13 02:36:00;;;;;;;;;;;10.40;99.90;;;;;;5072150;28;19921;-70
2022/05/13 02:38:26;;;;;;;;;;;10.40;99.90;;;;;;5073836;28;20268;-70
2022/05/13 02:43:36;;;;;;;;;;;10.40;99.90;;;;;;5074348;28;19957;-70
2022/05/13 02:46:01;;;;;;;;;;;10.40;99.90;;;;;;5073149;28;19925;-70
2022/05/13 02:48:27;;;;;;;;;;;10.40;99.90;;;;;;5073384;28;19990;-70
2022/05/13 02:50:52;;;;;;;;;;;10.40;99.90;;;;;;5074121;28;19928;-71
2022/05/13 02:53:18;;;;;;;;;;;10.40;99.90;;;;;;5057263;28;19932;-70
2022/05/13 02:55:44;;;;;;;;;;;10.40;99.90;;;;;;5079165;28;20029;-70
2022/05/13 02:58:09;;;;;;;;;;;10.50;99.90;;;;;;5059917;28;19928;-70
2022/05/13 03:00:34;;;;;;;;;;;10.50;99.90;;;;;;5072528;28;19927;-71
2022/05/13 03:03:00;;;;;;;;;;;10.50;99.90;;;;;;5079257;28;19960;-68
2022/05/13 03:05:26;;;;;;;;;;;10.50;99.90;;;;;;5075269;28;19967;-70
2022/05/13 03:07:52;;;;;;;;;;;10.50;99.90;;;;;;5076287;28;19936;-70
2022/05/13 03:10:18;;;;;;;;;;;10.50;99.90;;;;;;5073828;28;19921;-71
2022/05/13 03:12:44;;;;;;;;;;;10.50;99.90;;;;;;5074076;28;19951;-69
2022/05/13 03:15:10;;;;;;;;;;;10.50;99.90;;;;;;5057017;28;19932;-69
2022/05/13 03:17:36;;;;;;;;;;;10.60;99.90;;;;;;5070312;28;19946;-70
2022/05/13 03:20:02;;;;;;;;;;;10.50;99.90;;;;;;5074195;28;19928;-70
2022/05/13 03:22:27;;;;;;;;;;;10.50;99.90;;;;;;5073454;28;20010;-70
2022/05/13 03:24:53;;;;;;;;;;;10.60;99.90;;;;;;5075987;28;20007;-71
2022/05/13 03:27:18;;;;;;;;;;;10.50;99.90;;;;;;5075000;28;19928;-70
2022/05/13 03:29:44;;;;;;;;;;;10.60;99.90;;;;;;5080084;28;19928;-69
2022/05/13 03:32:09;;;;;;;;;;;10.60;99.90;;;;;;5074350;28;19928;-70
2022/05/13 03:34:38;;;;;;;;;;;10.50;99.90;;;;;;5079289;28;19924;-70
2022/05/13 03:37:04;;;;;;;;;;;10.60;99.90;;;;;;5071992;28;19928;-70
2022/05/13 03:39:30;;;;;;;;;;;10.60;99.90;;;;;;5073728;28;19939;-68
2022/05/13 03:41:55;;;;;;;;;;;10.60;99.90;;;;;;5076851;28;19923;-69
2022/05/13 03:44:21;;;;;;;;;;;10.60;99.90;;;;;;5074941;28;19920;-70
2022/05/13 03:46:46;;;;;;;;;;;10.60;99.90;;;;;;5075680;28;19920;-69
2022/05/13 03:49:11;;;;;;;;;;;10.60;99.90;;;;;;5078561;28;20279;-68
2022/05/13 03:51:37;;;;;;;;;;;10.60;99.90;;;;;;5057359;28;19947;-69
2022/05/13 03:54:03;;;;;;;;;;;10.60;99.90;;;;;;5077364;28;19928;-68
2022/05/13 03:56:29;;;;;;;;;;;10.60;99.90;;;;;;5080099;28;19924;-69
2022/05/13 03:58:54;;;;;;;;;;;10.70;99.90;;;;;;5078761;28;19939;-70
2022/05/13 04:01:20;;;;;;;;;;;10.70;99.90;;;;;;5068414;28;19939;-69
2022/05/13 04:03:47;;;;;;;;;;;10.70;99.90;;;;;;5076416;28;19928;-71
2022/05/13 04:09:00;;;;;;;;;;;10.70;99.90;;;;;;5107011;27;19978;-66
2022/05/13 04:11:27;;;;;;;;;;;10.70;99.90;;;;;;5110099;27;19932;-67
2022/05/13 04:16:37;;;;;;;;;;;10.70;99.90;;;;;;5081125;28;19966;-67
2022/05/13 04:19:04;;;;;;;;;;;10.70;99.90;;;;;;5093827;28;19932;-67
2022/05/13 04:21:30;;;;;;;;;;;10.70;99.90;;;;;;5075232;28;19924;-68
2022/05/13 04:23:57;;;;;;;;;;;10.80;99.90;;;;;;5077260;28;20363;-67
2022/05/13 04:26:23;;;;;;;;;;;10.70;99.90;;;;;;5076643;28;20451;-66
2022/05/13 04:28:50;;;;;;;;;;;10.80;99.90;;;;;;5106927;27;21465;-67
2022/05/13 04:31:16;;;;;;;;;;;10.80;99.90;;;;;;5079360;28;19990;-68
2022/05/13 04:33:42;;;;;;;;;;;10.70;99.90;;;;;;5077907;28;20003;-69
2022/05/13 04:36:08;;;;;;;;;;;10.80;99.90;;;;;;5078174;28;20019;-67
2022/05/13 04:38:34;;;;;;;;;;;10.80;99.90;;;;;;5078230;28;20336;-67
2022/05/13 04:42:49;;;;;;;;;;;10.80;99.90;;;;;;5079947;28;20038;-68
2022/05/13 04:43:45;;;;;;;;;;;10.80;99.90;;;;;;5106671;27;19981;-67
2022/05/13 04:46:11;;;;;;;;;;;10.90;99.90;;;;;;5076549;28;20606;-66
2022/05/13 04:48:36;;;;;;;;;;;10.90;99.90;;;;;;5081027;28;19929;-69
2022/05/13 04:51:02;;;;;;;;;;;10.90;99.90;;;;;;5106645;27;19994;-67
2022/05/13 04:53:29;;;;;;;;;;;11.00;99.90;;;;;;5077862;28;19939;-69
2022/05/13 04:55:55;;;;;;;;;;;11.00;99.90;;;;;;5077510;28;20511;-68
2022/05/13 04:58:22;;;;;;;;;;;11.00;99.90;;;;;;5078335;28;19920;-66
2022/05/13 05:00:48;;;;;;;;;;;11.10;99.90;;;;;;5076766;28;20379;-67
2022/05/13 05:03:15;;;;;;;;;;;11.10;99.90;;;;;;5076574;28;19934;-67
2022/05/13 05:05:42;;;;;;;;;;;11.20;99.90;;;;;;5080856;28;20359;-67
2022/05/13 05:08:08;;;;;;;;;;;11.10;99.90;;;;;;5059706;28;20011;-70
2022/05/13 05:10:34;;;;;;;;;;;11.10;99.90;;;;;;5071318;28;20011;-69
2022/05/13 05:12:59;;;;;;;;;;;11.20;99.90;;;;;;5075670;28;19935;-68
2022/05/13 05:15:25;;;;;;;;;;;11.20;99.90;;;;;;5078505;28;19919;-68
2022/05/13 05:17:51;;;;;;;;;;;11.30;99.90;;;;;;5063980;28;19964;-69
2022/05/13 05:20:17;;;;;;;;;;;11.30;99.90;;;;;;5075618;28;20287;-68
2022/05/13 05:22:44;;;;;;;;;;;11.40;99.90;;;;;;5076069;28;20015;-69
2022/05/13 05:25:10;;;;;;;;;;;11.40;99.90;;;;;;5108207;27;19977;-67
2022/05/13 05:27:36;;;;;;;;;;;11.40;99.90;;;;;;5075719;28;19923;-68
2022/05/13 05:30:06;;;;;;;;;;;11.60;99.90;;;;;;5072242;28;19963;-69
2022/05/13 05:32:31;;;;;;;;;;;11.60;99.90;;;;;;5107756;27;19924;-70
2022/05/13 05:34:57;;;;;;;;;;;11.70;99.90;;;;;;5072127;28;19927;-69
2022/05/13 05:37:22;;;;;;;;;;;11.70;99.90;;;;;;5080835;28;20493;-69
2022/05/13 05:39:48;;;;;;;;;;;11.90;99.90;;;;;;5076297;28;20372;-69
2022/05/13 05:42:13;;;;;;;;;;;11.90;99.90;;;;;;5085533;28;19977;-69
2022/05/13 05:44:39;;;;;;;;;;;12.00;99.90;;;;;;5115157;27;19920;-68
2022/05/13 05:47:05;;;;;;;;;;;12.20;99.90;;;;;;5077878;28;19954;-69
2022/05/13 05:49:30;;;;;;;;;;;12.30;99.90;;;;;;5073705;28;19928;-70
2022/05/13 05:51:56;;;;;;;;;;;12.50;99.90;;;;;;5077026;28;20022;-73
2022/05/13 05:57:15;;;;;;;;;;;12.50;99.90;;;;;;5086430;28;19935;-72
2022/05/13 05:59:41;;;;;;;;;;;12.60;99.90;;;;;;5106670;27;19929;-74
2022/05/13 06:02:07;;;;;;;;;;;12.70;99.90;;;;;;5074816;28;19947;-70
2022/05/13 06:04:33;;;;;;;;;;;12.80;99.90;;;;;;5089356;28;19920;-73
2022/05/13 06:06:59;;;;;;;;;;;12.80;99.90;;;;;;5071841;28;19928;-68
2022/05/13 06:09:24;;;;;;;;;;;12.90;99.90;;;;;;5092876;28;20298;-69
2022/05/13 06:11:50;;;;;;;;;;;13.00;99.90;;;;;;5084959;28;19931;-71
2022/05/13 06:14:16;;;;;;;;;;;13.20;99.90;;;;;;5090219;28;19920;-70
2022/05/13 06:16:42;;;;;;;;;;;13.30;99.90;;;;;;5085609;28;19935;-74
2022/05/13 06:19:08;;;;;;;;;;;13.40;99.90;;;;;;5088296;28;19927;-70
2022/05/13 06:21:35;;;;;;;;;;;13.50;99.90;;;;;;5067656;28;20019;-71
2022/05/13 06:24:01;;;;;;;;;;;13.50;99.90;;;;;;5112737;27;19919;-70
2022/05/13 06:26:26;;;;;;;;;;;13.60;99.90;;;;;;5063972;28;19930;-70
2022/05/13 06:28:52;;;;;;;;;;;13.60;99.90;;;;;;5078244;28;19935;-72
2022/05/13 06:31:18;;;;;;;;;;;13.60;99.90;;;;;;5060424;28;20450;-67
2022/05/13 06:33:44;;;;;;;;;;;13.60;99.90;;;;;;5080595;28;20023;-70
2022/05/13 06:36:11;;;;;;;;;;;13.60;99.90;;;;;;5062646;28;19935;-68
2022/05/13 06:38:36;;;;;;;;;;;13.50;99.90;;;;;;5076764;28;20411;-70
2022/05/13 06:41:02;;;;;;;;;;;13.50;99.90;;;;;;5079002;28;20019;-71
2022/05/13 06:43:27;;;;;;;;;;;13.50;99.90;;;;;;5077532;28;20003;-69
2022/05/13 06:45:53;;;;;;;;;;;13.50;99.90;;;;;;5061028;28;20268;-70
2022/05/13 06:48:18;;;;;;;;;;;13.50;99.90;;;;;;5072974;28;20687;-74
2022/05/13 06:50:46;;;;;;;;;;;13.60;99.90;;;;;;5072991;28;19927;-70
2022/05/13 06:53:12;;;;;;;;;;;13.70;99.90;;;;;;5087440;28;19928;-73
2022/05/13 06:55:39;;;;;;;;;;;13.70;99.90;;;;;;5056895;28;19924;-69
2022/05/13 06:58:06;;;;;;;;;;;13.80;99.90;;;;;;5069913;28;19926;-72
2022/05/13 07:00:31;;;;;;;;;;;13.90;99.90;;;;;;5080118;28;20345;-71
2022/05/13 07:02:57;;;;;;;;;;;13.90;99.90;;;;;;5080833;28;20056;-71
2022/05/13 07:05:22;;;;;;;;;;;13.90;99.90;;;;;;5083091;28;20337;-77
2022/05/13 07:07:48;;;;;;;;;;;13.80;99.90;;;;;;5081405;28;20011;-69
2022/05/13 07:10:14;;;;;;;;;;;13.70;99.90;;;;;;5079489;28;20441;-73
2022/05/13 07:12:40;;;;;;;;;;;13.70;99.90;;;;;;5074212;28;19925;-72
2022/05/13 07:15:07;;;;;;;;;;;13.70;99.90;;;;;;5077479;28;19920;-71
2022/05/13 07:17:33;;;;;;;;;;;13.70;99.90;;;;;;5080305;28;19924;-68
2022/05/13 07:19:58;;;;;;;;;;;13.70;99.90;;;;;;5086687;28;20369;-73
2022/05/13 07:22:24;;;;;;;;;;;13.90;99.90;;;;;;5082852;28;20324;-71
2022/05/13 07:24:51;;;;;;;;;;;14.10;99.90;;;;;;5071071;28;19931;-74
2022/05/13 07:27:17;;;;;;;;;;;14.30;99.90;;;;;;5072376;28;20295;-78
2022/05/13 07:29:43;;;;;;;;;;;14.50;99.90;;;;;;5077574;28;19920;-71
2022/05/13 07:32:09;;;;;;;;;;;14.50;99.90;;;;;;5079524;28;19931;-75
2022/05/13 07:34:34;;;;;;;;;;;14.40;99.90;;;;;;5063119;28;19920;-73
2022/05/13 07:37:00;;;;;;;;;;;14.50;99.90;;;;;;5074825;28;19974;-69
2022/05/13 07:42:10;;;;;;;;;;;14.50;99.90;;;;;;5067889;28;19928;-74
2022/05/13 07:44:36;;;;;;;;;;;14.40;99.90;;;;;;5057549;28;19920;-69
2022/05/13 07:47:02;;;;;;;;;;;14.40;99.90;;;;;;5076103;28;19920;-70
2022/05/13 07:49:28;;;;;;;;;;;14.50;99.90;;;;;;5074966;28;19921;-71
2022/05/13 07:51:53;;;;;;;;;;;14.50;99.90;;;;;;5067365;28;19936;-73
2022/05/13 07:54:19;;;;;;;;;;;14.50;99.90;;;;;;5057834;28;19920;-70
2022/05/13 07:56:44;;;;;;;;;;;14.50;99.90;;;;;;5110495;28;19931;-70
2022/05/13 07:59:10;;;;;;;;;;;14.50;99.90;;;;;;5070368;28;20117;-74
2022/05/13 08:01:35;;;;;;;;;;;14.50;99.90;;;;;;5109814;27;20367;-68
2022/05/13 08:04:01;;;;;;;;;;;14.50;99.90;;;;;;5063140;28;19924;-70
2022/05/13 08:06:27;;;;;;;;;;;14.50;99.90;;;;;;5069665;28;19981;-71
2022/05/13 08:08:58;;;;;;;;;;;14.60;99.90;;;;;;5060023;28;19928;-74
2022/05/13 08:11:25;;;;;;;;;;;14.80;99.90;;;;;;5071875;28;19920;-70
2022/05/13 08:13:50;;;;;;;;;;;15.00;99.90;;;;;;5087339;28;19994;-68
2022/05/13 08:16:17;;;;;;;;;;;15.00;99.90;;;;;;5067076;28;20004;-73
2022/05/13 08:18:43;;;;;;;;;;;15.10;99.90;;;;;;5063647;28;21370;-74
2022/05/13 08:21:09;;;;;;;;;;;15.20;99.90;;;;;;5118941;28;19946;-75
2022/05/13 08:23:35;;;;;;;;;;;15.10;99.90;;;;;;5066525;28;19916;-75
2022/05/13 08:26:01;;;;;;;;;;;15.10;99.90;;;;;;5088576;28;20315;-73
2022/05/13 08:28:26;;;;;;;;;;;15.10;99.90;;;;;;5067065;28;19924;-75
2022/05/13 08:30:52;;;;;;;;;;;15.10;99.90;;;;;;5079080;28;19989;-73
2022/05/13 08:33:18;;;;;;;;;;;15.10;99.90;;;;;;5078788;28;19931;-72
2022/05/13 08:35:48;;;;;;;;;;;15.00;99.90;;;;;;5078635;28;19970;-76
2022/05/13 08:38:14;;;;;;;;;;;15.00;99.90;;;;;;5075107;28;19920;-73
2022/05/13 08:40:49;;;;;;;;;;;14.90;99.90;;;;;;5078637;28;20334;-68
2022/05/13 08:43:17;;;;;;;;;;;15.10;99.90;;;;;;5072670;28;19924;-70
2022/05/13 08:45:49;;;;;;;;;;;15.30;99.90;;;;;;5087252;28;19928;-73
2022/05/13 08:48:17;;;;;;;;;;;15.40;99.90;;;;;;5115575;27;20354;-72
2022/05/13 08:50:50;;;;;;;;;;;15.40;99.90;;;;;;5101013;28;20398;-74
2022/05/13 08:53:16;;;;;;;;;;;15.30;99.90;;;;;;5076042;28;19931;-76
2022/05/13 08:55:45;;;;;;;;;;;15.20;99.90;;;;;;5088789;28;20002;-73
2022/05/13 08:58:12;;;;;;;;;;;15.10;99.90;;;;;;5081815;28;19927;-71
2022/05/13 09:00:40;;;;;;;;;;;15.10;99.90;;;;;;5085428;28;19924;-72
2022/05/13 09:03:15;;;;;;;;;;;15.00;99.90;;;;;;5106726;28;19920;-78
2022/05/13 09:05:46;;;;;;;;;;;15.20;99.90;;;;;;5106796;27;20287;-74
2022/05/13 09:08:12;;;;;;;;;;;15.40;99.90;;;;;;5079742;28;20404;-70
2022/05/13 09:10:49;;;;;;;;;;;15.50;99.90;;;;;;5097935;28;19920;-73
2022/05/13 09:13:15;;;;;;;;;;;15.60;99.90;;;;;;5084674;28;19935;-72
2022/05/13 09:15:42;;;;;;;;;;;15.60;99.90;;;;;;5090599;28;19920;-68
2022/05/13 09:18:13;;;;;;;;;;;15.50;99.90;;;;;;5076169;28;20001;-69
2022/05/13 09:20:48;;;;;;;;;;;15.40;99.90;;;;;;5092357;28;20283;-74
2022/05/13 09:23:14;;;;;;;;;;;15.40;99.90;;;;;;5089591;28;20546;-73
2022/05/13 09:26:01;;;;;;;;;;;15.30;99.90;;;;;;5088615;28;19920;-72
2022/05/13 09:28:27;;;;;;;;;;;15.10;99.90;;;;;;5080655;28;19924;-72
2022/05/13 09:30:55;;;;;;;;;;;14.90;99.90;;;;;;5072413;28;19977;-70
2022/05/13 09:33:26;;;;;;;;;;;14.80;99.90;;;;;;5080412;28;19924;-73
2022/05/13 09:35:55;;;;;;;;;;;14.90;99.90;;;;;;5109745;27;20065;-74
2022/05/13 09:38:26;;;;;;;;;;;15.00;99.90;;;;;;5061402;28;19944;-77
2022/05/13 09:40:58;;;;;;;;;;;15.10;99.90;;;;;;5117314;27;20329;-69
2022/05/13 09:43:42;;;;;;;;;;;15.30;99.90;;;;;;5071551;28;19928;-76
2022/05/13 09:46:09;;;;;;;;;;;15.30;99.90;;;;;;5081692;28;20460;-74
2022/05/13 09:48:36;;;;;;;;;;;15.30;99.90;;;;;;5086860;28;20007;-74
2022/05/13 09:51:21;;;;;;;;;;;15.40;99.90;;;;;;5103837;27;20384;-72
2022/05/13 09:53:58;;;;;;;;;;;15.60;99.90;;;;;;5053193;28;19924;-74
2022/05/13 09:56:29;;;;;;;;;;;15.90;99.90;;;;;;5079741;28;19927;-76
2022/05/13 09:58:55;;;;;;;;;;;16.30;99.90;;;;;;5090396;28;20390;-70
2022/05/13 10:01:22;;;;;;;;;;;16.20;99.90;;;;;;5119836;27;19942;-76
2022/05/13 10:04:10;;;;;;;;;;;16.00;99.90;;;;;;5078061;28;19982;-71
2022/05/13 10:06:37;;;;;;;;;;;16.00;99.90;;;;;;5079613;28;19977;-70
2022/05/13 10:14:41;;;;;;;;;;;16.40;99.90;;;;;;5080822;28;19935;-76
2022/05/13 10:17:25;;;;;;;;;;;16.50;99.90;;;;;;5074734;28;19924;-75
2022/05/13 10:19:52;;;;;;;;;;;16.30;99.90;;;;;;5104340;28;19924;-77
2022/05/13 10:22:24;;;;;;;;;;;16.10;99.90;;;;;;5066348;28;19920;-70
2022/05/13 10:25:01;;;;;;;;;;;16.00;99.90;;;;;;5086812;28;20012;-68
2022/05/13 10:27:29;;;;;;;;;;;16.00;99.90;;;;;;5077617;28;20018;-76
2022/05/13 10:29:58;;;;;;;;;;;16.00;99.90;;;;;;5086339;28;19924;-72
2022/05/13 10:32:35;;;;;;;;;;;15.80;99.90;;;;;;5089474;28;20031;-71
2022/05/13 10:35:04;;;;;;;;;;;15.80;99.90;;;;;;5100511;28;19920;-70
2022/05/13 10:37:47;;;;;;;;;;;15.90;99.90;;;;;;5085170;28;19974;-69
2022/05/13 10:40:16;;;;;;;;;;;16.10;99.90;;;;;;5108186;27;19935;-70
2022/05/13 10:42:43;;;;;;;;;;;16.40;99.90;;;;;;5087624;28;20459;-72
2022/05/13 10:45:25;;;;;;;;;;;16.40;99.90;;;;;;5075565;28;20399;-75
2022/05/13 10:48:01;;;;;;;;;;;16.40;99.90;;;;;;5059857;28;20007;-73
2022/05/13 10:50:33;;;;;;;;;;;16.70;99.90;;;;;;5068639;28;19923;-72
2022/05/13 10:53:13;;;;;;;;;;;17.00;99.90;;;;;;5105666;27;19924;-70
2022/05/13 10:55:51;;;;;;;;;;;17.00;99.90;;;;;;5084739;28;19928;-75
2022/05/13 10:58:16;;;;;;;;;;;17.10;99.90;;;;;;5085879;28;19920;-70
2022/05/13 11:00:44;;;;;;;;;;;17.10;99.90;;;;;;5078933;28;19924;-71
2022/05/13 11:03:23;;;;;;;;;;;16.90;99.90;;;;;;5076993;28;20393;-72
2022/05/13 11:05:59;;;;;;;;;;;16.40;99.90;;;;;;5076760;28;19958;-71
2022/05/13 11:08:24;;;;;;;;;;;16.20;99.90;;;;;;5094070;28;19982;-72
2022/05/13 11:11:19;;;;;;;;;;;16.40;99.90;;;;;;5080492;28;19959;-71
2022/05/13 11:14:00;;;;;;;;;;;16.70;99.90;;;;;;5067346;28;19994;-72
2022/05/13 11:16:44;;;;;;;;;;;16.70;99.90;;;;;;5086312;28;19920;-69
2022/05/13 11:19:16;;;;;;;;;;;16.60;99.90;;;;;;5080498;28;19927;-69
2022/05/13 11:22:01;;;;;;;;;;;16.30;99.90;;;;;;5071105;28;19921;-71
2022/05/13 11:27:20;;;;;;;;;;;16.30;99.90;;;;;;5081769;28;19977;-70
2022/05/13 11:29:56;;;;;;;;;;;16.20;99.90;;;;;;5059406;28;20290;-71
2022/05/13 11:32:34;;;;;;;;;;;16.10;99.90;;;;;;5051952;28;19974;-70
2022/05/13 11:35:27;;;;;;;;;;;16.00;99.90;;;;;;5123162;28;20413;-69
2022/05/13 11:37:55;;;;;;;;;;;16.00;99.90;;;;;;5089683;28;19931;-69
2022/05/13 11:40:26;;;;;;;;;;;16.30;99.90;;;;;;5088828;28;20014;-72
2022/05/13 11:43:20;;;;;;;;;;;16.60;99.90;;;;;;5105678;28;19928;-69
2022/05/13 11:45:49;;;;;;;;;;;16.70;99.90;;;;;;5094118;28;19924;-70
2022/05/13 11:48:26;;;;;;;;;;;16.80;99.90;;;;;;5068650;28;19935;-70
2022/05/13 11:50:52;;;;;;;;;;;16.80;99.90;;;;;;5069439;28;19967;-73
2022/05/13 11:53:37;;;;;;;;;;;16.70;99.90;;;;;;5070544;28;19947;-71
2022/05/13 11:56:13;;;;;;;;;;;16.50;99.90;;;;;;5085894;28;19956;-69
2022/05/13 11:58:58;;;;;;;;;;;16.50;99.90;;;;;;5089215;28;19978;-71
2022/05/13 12:01:44;;;;;;;;;;;16.70;99.90;;;;;;5071752;28;19920;-67
2022/05/13 12:04:12;;;;;;;;;;;16.90;99.90;;;;;;5068529;28;19919;-69
2022/05/13 12:06:50;;;;;;;;;;;16.80;99.90;;;;;;5084556;28;19924;-69
2022/05/13 12:09:34;;;;;;;;;;;16.70;99.90;;;;;;5089799;28;19940;-68
2022/05/13 12:12:16;;;;;;;;;;;16.90;99.90;;;;;;5077956;28;20018;-75
2022/05/13 12:14:54;;;;;;;;;;;16.70;99.90;;;;;;5087646;28;20419;-74
2022/05/13 12:17:25;;;;;;;;;;;16.90;99.90;;;;;;5087044;28;20018;-73
2022/05/13 12:20:07;;;;;;;;;;;17.20;99.90;;;;;;5071010;28;19985;-75
2022/05/13 12:22:52;;;;;;;;;;;17.20;99.90;;;;;;5080614;28;20353;-72
2022/05/13 12:25:26;;;;;;;;;;;17.10;99.90;;;;;;5090950;28;20570;-77
2022/05/13 12:28:08;;;;;;;;;;;16.90;99.90;;;;;;5090479;28;19969;-73
2022/05/13 12:30:39;;;;;;;;;;;17.10;99.90;;;;;;5092742;28;20279;-71
2022/05/13 12:33:17;;;;;;;;;;;17.00;99.90;;;;;;5092756;28;19924;-72
2022/05/13 12:38:29;;;;;;;;;;;16.70;99.90;;;;;;5092108;28;19970;-71
2022/05/13 12:41:09;;;;;;;;;;;16.70;99.90;;;;;;5093015;28;20329;-74
2022/05/13 12:43:44;;;;;;;;;;;16.70;99.90;;;;;;5093738;28;19972;-69
2022/05/13 12:46:13;;;;;;;;;;;16.90;99.90;;;;;;5090791;28;19927;-78
2022/05/13 12:48:53;;;;;;;;;;;17.00;99.90;;;;;;5091061;28;19968;-77
2022/05/13 12:51:19;;;;;;;;;;;17.10;99.90;;;;;;5077127;28;20430;-73
2022/05/13 12:53:54;;;;;;;;;;;17.30;99.90;;;;;;5076054;28;20023;-73
2022/05/13 12:56:27;;;;;;;;;;;17.60;99.90;;;;;;5088781;28;19931;-72
2022/05/13 12:58:59;;;;;;;;;;;17.70;99.90;;;;;;5091980;28;19928;-68
2022/05/13 13:01:26;;;;;;;;;;;17.50;99.90;;;;;;5092157;28;19923;-67
2022/05/13 13:03:52;;;;;;;;;;;17.20;99.90;;;;;;5092016;28;19968;-69
2022/05/13 13:06:20;;;;;;;;;;;17.00;99.90;;;;;;5088495;28;20257;-68
2022/05/13 13:08:47;;;;;;;;;;;17.20;99.90;;;;;;5106872;28;19927;-69
2022/05/13 13:11:12;;;;;;;;;;;17.40;99.90;;;;;;5092125;28;19930;-69
2022/05/13 13:13:56;;;;;;;;;;;17.60;99.90;;;;;;5084591;28;20283;-70
2022/05/13 13:16:43;;;;;;;;;;;17.50;99.90;;;;;;5071485;28;20200;-73
2022/05/13 13:19:10;;;;;;;;;;;17.30;99.90;;;;;;5054870;28;20348;-70
2022/05/13 13:21:36;;;;;;;;;;;17.20;99.90;;;;;;5054823;28;20363;-73
2022/05/13 13:24:05;;;;;;;;;;;17.10;99.90;;;;;;5072111;28;19931;-67
2022/05/13 13:26:31;;;;;;;;;;;17.00;99.90;;;;;;5106726;27;19925;-70
2022/05/13 13:28:56;;;;;;;;;;;16.70;99.90;;;;;;5091626;28;20370;-69
2022/05/13 13:31:23;;;;;;;;;;;16.70;99.90;;;;;;5074771;28;19920;-73
2022/05/13 13:33:53;;;;;;;;;;;16.80;99.90;;;;;;5091440;28;19933;-66
2022/05/13 13:36:24;;;;;;;;;;;17.00;99.90;;;;;;5086416;28;20060;-69
2022/05/13 13:38:52;;;;;;;;;;;17.10;99.90;;;;;;5082018;28;19927;-67
2022/05/13 13:41:25;;;;;;;;;;;17.10;99.90;;;;;;5099224;28;19920;-68
2022/05/13 13:43:54;;;;;;;;;;;17.10;99.90;;;;;;5064283;28;19920;-68
2022/05/13 13:46:22;;;;;;;;;;;17.00;99.90;;;;;;5086011;28;19928;-73
2022/05/13 13:48:53;;;;;;;;;;;17.10;99.90;;;;;;5091221;28;19920;-71
2022/05/13 13:51:24;;;;;;;;;;;17.20;99.90;;;;;;5092312;28;19924;-70
2022/05/13 13:53:58;;;;;;;;;;;17.10;99.90;;;;;;5083317;28;20019;-69
2022/05/13 13:56:24;;;;;;;;;;;17.20;99.90;;;;;;5091429;28;20263;-73
2022/05/13 13:59:08;;;;;;;;;;;17.30;99.90;;;;;;5081582;28;19935;-69
2022/05/13 14:01:35;;;;;;;;;;;17.20;99.90;;;;;;5091856;28;19931;-68
2022/05/13 14:04:09;;;;;;;;;;;17.20;99.90;;;;;;5074570;28;19927;-71
2022/05/13 14:06:35;;;;;;;;;;;17.30;99.90;;;;;;5085956;28;19920;-70
2022/05/13 14:09:01;;;;;;;;;;;17.30;99.90;;;;;;5090167;28;20416;-66
2022/05/13 14:11:27;;;;;;;;;;;17.30;99.90;;;;;;5091599;28;20011;-67
2022/05/13 14:13:54;;;;;;;;;;;17.40;99.90;;;;;;5076112;28;19929;-70
2022/05/13 14:16:24;;;;;;;;;;;17.30;99.90;;;;;;5070348;28;19920;-69
2022/05/13 14:18:51;;;;;;;;;;;17.20;99.90;;;;;;5092971;28;19926;-69
2022/05/13 14:21:20;;;;;;;;;;;17.00;99.90;;;;;;5092396;28;20371;-73
2022/05/13 14:23:59;;;;;;;;;;;17.20;99.90;;;;;;5087887;28;19970;-67
2022/05/13 14:26:24;;;;;;;;;;;17.30;99.90;;;;;;5074109;28;19920;-71
2022/05/13 14:28:51;;;;;;;;;;;17.40;99.90;;;;;;5090274;28;19927;-71
2022/05/13 14:31:18;;;;;;;;;;;17.30;99.90;;;;;;5073555;28;19920;-73
2022/05/13 14:33:53;;;;;;;;;;;17.30;99.90;;;;;;5090815;28;19977;-70
2022/05/13 14:36:22;;;;;;;;;;;17.40;99.90;;;;;;5090089;28;19946;-68
2022/05/13 14:41:37;;;;;;;;;;;17.30;99.90;;;;;;5090514;28;19928;-70
2022/05/13 14:44:04;;;;;;;;;;;17.20;99.90;;;;;;5072498;28;20375;-68
2022/05/13 14:46:30;;;;;;;;;;;17.10;99.90;;;;;;5084704;28;20001;-68
2022/05/13 14:48:56;;;;;;;;;;;17.20;99.90;;;;;;5090461;28;20025;-70
2022/05/13 14:51:22;;;;;;;;;;;17.30;99.90;;;;;;5078270;28;19927;-68
2022/05/13 14:53:58;;;;;;;;;;;17.50;99.90;;;;;;5096786;28;19932;-67
2022/05/13 14:56:26;;;;;;;;;;;17.60;99.90;;;;;;5090555;28;19920;-68